Galeville, New York
Current Conditions -  °F | °C
As of 5:54 AM on Tuesday 21 Oct 2014 (Local Time) from KSYR Reporting Station
Drizzle Drizzle  
Wind Chill: 45°   Ceiling: 3500
Heat Index: 49°   Visibility: 8mi
Dew Point: 46°   Wind: 8mph
Humidity: 91%   Direction: 120°ESE
Pressure: 29.83"   Gusts: NA
Location:  43.1098°N, 76.1878°W
Report Text: KSYR 210954Z 12007KT 8SM -DZ FEW020 BKN035 OVC045 09/08 A2983 RMK SLP099 T00920078
Loading
Personal Weather Stations






























Interactive Weather Map New forecast layout! Learn more

10-Day Weather Forecast

Advertisements
Track Severe Weather on mobile